Time;durP1;ratioP1;P1;durP2;ratioP2;P2;SDS_P1;SDS_P2;PMS_P1;PMS_P2;Temp;Humidity;BMP_temperature;BMP_pressure;BME280_temperature;BME280_humidity;BME280_pressure;Samples;Min_cycle;Max_cycle;Signal;HPM_P1;HPM_P2
2022/04/01 00:00:11;;;;;;;17.77;10.63;;;0.70;99.90;;;;;;5035818;28;20180;-79
2022/04/01 00:02:38;;;;;;;15.87;10.23;;;0.70;99.90;;;;;;5036658;28;20701;-79
2022/04/01 00:05:05;;;;;;;14.80;10.03;;;0.70;99.90;;;;;;5036577;28;20206;-79
2022/04/01 00:07:32;;;;;;;14.73;8.97;;;0.70;99.90;;;;;;5019112;28;20242;-79
2022/04/01 00:09:58;;;;;;;16.03;9.63;;;;;;;;;;5036733;28;20235;-79
2022/04/01 00:12:24;;;;;;;20.63;11.70;;;;;;;;;;5019165;28;20180;-79
2022/04/01 00:14:50;;;;;;;16.93;10.20;;;;;;;;;;5036545;28;20175;-78
2022/04/01 00:17:16;;;;;;;19.10;10.77;;;0.70;99.90;;;;;;5036607;28;20342;-78
2022/04/01 00:19:42;;;;;;;21.47;11.43;;;1.30;99.90;;;;;;5036472;28;20271;-79
2022/04/01 00:22:07;;;;;;;18.63;10.27;;;1.80;99.90;;;;;;5036800;28;20188;-78
2022/04/01 00:24:33;;;;;;;21.97;10.60;;;;;;;;;;5036639;28;20187;-78
2022/04/01 00:27:00;;;;;;;17.43;10.80;;;0.70;99.90;;;;;;5002590;28;20587;-78
2022/04/01 00:29:25;;;;;;;14.17;9.53;;;2.60;99.90;;;;;;5018512;28;20660;-78
2022/04/01 00:32:00;;;;;;;14.73;9.97;;;0.60;99.90;;;;;;5036369;28;20177;-78
2022/04/01 00:34:30;;;;;;;14.00;8.43;;;0.60;99.90;;;;;;5036518;28;20206;-77
2022/04/01 00:36:57;;;;;;;16.27;10.27;;;0.60;99.90;;;;;;5036015;28;20188;-78
2022/04/01 00:39:24;;;;;;;14.20;9.27;;;0.60;99.90;;;;;;5036559;28;20271;-77
2022/04/01 00:41:51;;;;;;;10.80;7.73;;;0.60;99.90;;;;;;5035882;28;20185;-78
2022/04/01 00:44:21;;;;;;;12.90;7.90;;;0.60;99.90;;;;;;5036148;28;20173;-78
2022/04/01 00:46:51;;;;;;;13.27;8.23;;;0.60;99.90;;;;;;5035736;28;20211;-79
2022/04/01 00:49:18;;;;;;;12.07;7.37;;;0.60;99.90;;;;;;5018539;28;20644;-78
2022/04/01 00:51:47;;;;;;;12.27;6.77;;;1.00;99.90;;;;;;5035857;28;20175;-78
2022/04/01 00:54:13;;;;;;;11.70;7.40;;;0.60;99.90;;;;;;5035796;28;20235;-78
2022/04/01 00:56:40;;;;;;;13.03;8.27;;;0.60;99.90;;;;;;5035837;28;20223;-78
2022/04/01 00:59:08;;;;;;;11.10;7.53;;;0.60;99.90;;;;;;5035698;28;20229;-78
2022/04/01 01:01:35;;;;;;;12.03;7.13;;;0.80;99.90;;;;;;5035623;28;20181;-79
2022/04/01 01:04:04;;;;;;;11.00;7.17;;;1.60;99.90;;;;;;5035350;28;20626;-78
2022/04/01 01:06:31;;;;;;;12.70;7.67;;;0.60;99.90;;;;;;5036005;28;20218;-77
2022/04/01 01:08:58;;;;;;;11.60;7.50;;;1.30;99.90;;;;;;5035101;28;20750;-77
2022/04/01 01:11:25;;;;;;;10.83;7.80;;;2.10;99.90;;;;;;5035119;28;20300;-78
2022/04/01 01:13:51;;;;;;;10.30;7.60;;;2.30;99.90;;;;;;5035177;28;20183;-78
2022/04/01 01:16:17;;;;;;;10.37;7.00;;;0.60;99.90;;;;;;5017918;28;20186;-77
2022/04/01 01:18:43;;;;;;;10.50;7.10;;;1.30;99.90;;;;;;5017709;28;20267;-78
2022/04/01 01:21:09;;;;;;;9.53;6.53;;;0.50;99.90;;;;;;5017295;28;20181;-78
2022/04/01 01:23:36;;;;;;;9.47;6.27;;;0.50;99.90;;;;;;5035065;28;20230;-78
2022/04/01 01:26:02;;;;;;;9.07;6.60;;;0.60;99.90;;;;;;5017228;28;20238;-77
2022/04/01 01:28:28;;;;;;;8.50;6.13;;;0.60;99.90;;;;;;5035174;28;20192;-77
2022/04/01 01:30:54;;;;;;;9.93;6.47;;;1.80;99.90;;;;;;5017168;28;20701;-77
2022/04/01 01:33:20;;;;;;;10.53;6.03;;;1.80;99.90;;;;;;5034932;28;20279;-77
2022/04/01 01:35:46;;;;;;;8.90;5.60;;;2.10;99.90;;;;;;5035035;28;20656;-78
2022/04/01 01:38:17;;;;;;;10.23;6.67;;;2.50;99.90;;;;;;5034350;28;20242;-78
2022/04/01 01:40:42;;;;;;;9.57;6.70;;;1.60;99.90;;;;;;5034917;28;20153;-78
2022/04/01 01:43:08;;;;;;;7.43;5.47;;;0.50;99.90;;;;;;5034805;28;20195;-78
2022/04/01 01:45:34;;;;;;;7.97;5.93;;;1.70;99.90;;;;;;5017266;28;20208;-78
2022/04/01 01:47:59;;;;;;;8.07;6.10;;;0.50;99.90;;;;;;5034638;28;20580;-78
2022/04/01 01:55:53;;;;;;;8.30;5.70;;;0.50;99.90;;;;;;5034828;28;20175;-77
2022/04/01 01:58:19;;;;;;;9.10;5.40;;;1.10;99.90;;;;;;5000340;28;20309;-77
2022/04/01 02:00:45;;;;;;;7.33;5.77;;;0.50;99.90;;;;;;5016918;28;20239;-78
2022/04/01 02:03:12;;;;;;;6.73;5.40;;;;;;;;;;5034233;28;20197;-77
2022/04/01 02:05:38;;;;;;;9.23;5.93;;;0.50;99.90;;;;;;5034653;28;20183;-78
2022/04/01 02:08:05;;;;;;;7.97;5.50;;;0.50;99.90;;;;;;5034367;28;20200;-79
2022/04/01 02:10:31;;;;;;;8.83;5.63;;;0.50;99.90;;;;;;5017394;28;20242;-78
2022/04/01 02:12:58;;;;;;;8.27;5.60;;;0.70;99.90;;;;;;5017029;28;20183;-78
2022/04/01 02:15:24;;;;;;;8.47;5.67;;;;;;;;;;5017141;28;20768;-78
2022/04/01 02:17:50;;;;;;;7.17;5.33;;;;;;;;;;5016450;28;20313;-77
2022/04/01 02:20:16;;;;;;;7.80;5.10;;;;;;;;;;5034016;28;20630;-78
2022/04/01 02:22:43;;;;;;;6.40;4.57;;;;;;;;;;5033697;28;20201;-78
2022/04/01 02:25:11;;;;;;;9.80;4.87;;;0.50;99.90;;;;;;5033911;28;20211;-78
2022/04/01 02:27:38;;;;;;;6.07;4.63;;;0.50;99.90;;;;;;5034147;28;20181;-78
2022/04/01 02:30:10;;;;;;;5.07;4.23;;;0.50;99.90;;;;;;5033459;28;20193;-78
2022/04/01 02:32:41;;;;;;;6.97;5.13;;;0.40;99.90;;;;;;5016491;28;20649;-78
2022/04/01 02:35:08;;;;;;;6.63;4.97;;;0.40;99.90;;;;;;5033816;28;20242;-78
2022/04/01 02:37:34;;;;;;;7.80;5.47;;;0.40;99.90;;;;;;5033841;28;20356;-78
2022/04/01 02:40:01;;;;;;;7.97;5.00;;;0.40;99.90;;;;;;5016482;28;20176;-78
2022/04/01 02:42:26;;;;;;;7.57;4.33;;;0.50;99.90;;;;;;5015983;28;20182;-78
2022/04/01 02:44:52;;;;;;;6.90;4.67;;;0.40;99.90;;;;;;5033938;28;20181;-79
2022/04/01 02:47:18;;;;;;;5.13;4.20;;;0.40;99.90;;;;;;5033464;28;20641;-78
2022/04/01 02:49:44;;;;;;;6.37;4.67;;;0.40;99.90;;;;;;5033752;28;20588;-78
2022/04/01 02:52:09;;;;;;;7.87;4.30;;;0.40;99.90;;;;;;5033828;28;20180;-78
2022/04/01 02:54:35;;;;;;;7.33;4.93;;;1.10;99.90;;;;;;5033769;28;20183;-78
2022/04/01 02:57:02;;;;;;;6.10;4.90;;;0.40;99.90;;;;;;5034055;28;20184;-78
2022/04/01 02:59:29;;;;;;;6.00;5.37;;;0.40;99.90;;;;;;5033461;28;20195;-77
2022/04/01 03:01:55;;;;;;;5.60;4.37;;;1.40;99.90;;;;;;5033524;28;20203;-77
2022/04/01 03:04:21;;;;;;;6.57;4.50;;;1.50;99.90;;;;;;5033240;28;20184;-77
2022/04/01 03:06:47;;;;;;;6.40;4.50;;;0.30;99.90;;;;;;5015993;28;20253;-77
2022/04/01 03:09:13;;;;;;;6.37;5.03;;;0.30;99.90;;;;;;5033492;28;20236;-79
2022/04/01 03:11:41;;;;;;;5.73;4.37;;;0.30;99.90;;;;;;5015829;28;20227;-78
2022/04/01 03:14:08;;;;;;;8.20;4.60;;;0.40;99.90;;;;;;5034528;28;20176;-82
2022/04/01 03:16:38;;;;;;;8.80;4.87;;;1.70;99.90;;;;;;5033701;28;20392;-78
2022/04/01 03:19:08;;;;;;;6.03;4.47;;;0.30;99.90;;;;;;5033475;28;20254;-78
2022/04/01 03:21:35;;;;;;;5.63;4.20;;;1.10;99.90;;;;;;5034362;28;20230;-78
2022/04/01 03:24:02;;;;;;;5.63;4.23;;;;;;;;;;5033598;28;20184;-78
2022/04/01 03:26:28;;;;;;;6.03;4.63;;;0.20;99.90;;;;;;5033160;28;20291;-78
2022/04/01 03:28:54;;;;;;;7.07;5.00;;;;;;;;;;5033920;28;20319;-78
2022/04/01 03:31:20;;;;;;;7.50;4.70;;;;;;;;;;5033058;28;20179;-78
2022/04/01 03:33:46;;;;;;;4.43;3.40;;;0.20;99.90;;;;;;5032672;28;20267;-79
2022/04/01 03:36:13;;;;;;;7.13;4.47;;;0.20;99.90;;;;;;5032539;28;20319;-79
2022/04/01 03:38:39;;;;;;;4.70;4.00;;;0.10;99.90;;;;;;5032987;28;20201;-78
2022/04/01 03:41:05;;;;;;;5.53;4.37;;;1.90;99.90;;;;;;5032855;28;20274;-78
2022/04/01 03:43:34;;;;;;;5.17;3.87;;;1.30;99.90;;;;;;5015141;28;20194;-79
2022/04/01 03:46:08;;;;;;;5.27;4.10;;;0.10;99.90;;;;;;5033049;28;20174;-78
2022/04/01 03:48:38;;;;;;;7.63;4.27;;;0.10;99.90;;;;;;5033090;28;20179;-78
2022/04/01 03:51:04;;;;;;;7.73;4.07;;;0.10;99.90;;;;;;5033079;28;20659;-78
2022/04/01 03:53:32;;;;;;;5.87;4.00;;;0.40;99.90;;;;;;5033042;28;20182;-78
2022/04/01 03:55:59;;;;;;;5.20;3.63;;;0.20;99.90;;;;;;5033023;28;20645;-78
2022/04/01 03:58:35;;;;;;;6.10;3.57;;;0.10;99.90;;;;;;5032397;28;20695;-78
2022/04/01 04:01:04;;;;;;;5.60;3.63;;;0.80;99.90;;;;;;5032894;28;20187;-78
2022/04/01 04:03:31;;;;;;;5.03;3.57;;;0.10;99.90;;;;;;5032664;28;20180;-78
2022/04/01 04:05:58;;;;;;;6.17;4.20;;;0.10;99.90;;;;;;5015406;28;20191;-78
2022/04/01 04:08:24;;;;;;;5.07;3.70;;;0.00;99.90;;;;;;5014860;28;20232;-78
2022/04/01 04:10:51;;;;;;;5.93;3.57;;;0.40;99.90;;;;;;5033716;28;20604;-78
2022/04/01 04:13:18;;;;;;;4.83;4.03;;;0.50;99.90;;;;;;5033717;28;20259;-78
2022/04/01 04:16:09;;;;;;;5.33;4.03;;;0.10;99.90;;;;;;5015394;28;20183;-78
2022/04/01 04:18:42;;;;;;;5.00;3.80;;;0.10;99.90;;;;;;5032362;28;20231;-78
2022/04/01 04:21:10;;;;;;;6.67;4.10;;;0.30;99.90;;;;;;5033003;28;20161;-78
2022/04/01 04:23:47;;;;;;;4.70;3.80;;;0.10;99.90;;;;;;5032838;28;20176;-78
2022/04/01 04:26:18;;;;;;;4.30;3.90;;;0.10;99.90;;;;;;5032819;28;20182;-77
2022/04/01 04:28:49;;;;;;;3.93;3.53;;;0.10;99.90;;;;;;5032612;28;20178;-77
2022/04/01 04:31:23;;;;;;;4.80;3.80;;;0.10;99.90;;;;;;5032754;28;20172;-77
2022/04/01 04:33:51;;;;;;;4.77;3.00;;;0.00;99.90;;;;;;5014518;28;20208;-77
2022/04/01 04:36:21;;;;;;;4.97;3.67;;;0.10;99.90;;;;;;5014910;28;20185;-77
2022/04/01 04:38:49;;;;;;;5.40;4.20;;;1.40;99.90;;;;;;5032189;28;20204;-78
2022/04/01 04:41:18;;;;;;;7.43;4.50;;;0.10;99.90;;;;;;5032299;28;20633;-78
2022/04/01 04:43:46;;;;;;;9.13;4.67;;;1.80;99.90;;;;;;5014685;28;20617;-78
2022/04/01 04:46:14;;;;;;;7.10;4.43;;;0.10;99.90;;;;;;5034951;28;20212;-78
2022/04/01 04:48:41;;;;;;;7.20;5.37;;;0.10;99.90;;;;;;5017779;28;20195;-76
2022/04/01 04:51:08;;;;;;;8.27;4.87;;;0.30;99.90;;;;;;5045238;28;20180;-78
2022/04/01 04:53:35;;;;;;;5.63;4.40;;;1.10;99.90;;;;;;5034908;28;20180;-76
2022/04/01 04:56:04;;;;;;;8.20;5.33;;;1.10;99.90;;;;;;5035439;28;20180;-77
2022/04/01 04:58:39;;;;;;;7.27;4.40;;;0.10;99.90;;;;;;5034732;28;20679;-78
2022/04/01 05:01:24;;;;;;;10.20;6.67;;;0.10;99.90;;;;;;5034962;28;20182;-77
2022/04/01 05:04:11;;;;;;;10.10;6.40;;;0.10;99.90;;;;;;5035046;28;20219;-78
2022/04/01 05:06:46;;;;;;;9.23;6.73;;;0.40;99.90;;;;;;5034802;28;20215;-77
2022/04/01 05:09:31;;;;;;;8.53;5.80;;;0.10;99.90;;;;;;5034992;28;20232;-78
2022/04/01 05:12:09;;;;;;;7.77;5.60;;;0.70;99.90;;;;;;5035093;28;20191;-80
2022/04/01 05:14:54;;;;;;;7.57;5.40;;;0.20;99.90;;;;;;5044860;28;20188;-79
2022/04/01 05:17:29;;;;;;;9.27;5.93;;;1.00;99.90;;;;;;5034906;28;20176;-78
2022/04/01 05:20:01;;;;;;;7.03;5.20;;;0.20;99.90;;;;;;5016448;28;20621;-80
2022/04/01 05:22:50;;;;;;;7.40;5.47;;;0.20;99.90;;;;;;5054387;28;20163;-78
2022/04/01 05:25:19;;;;;;;9.23;5.67;;;0.20;99.90;;;;;;5042057;28;20176;-79
2022/04/01 05:27:53;;;;;;;9.27;5.97;;;0.20;99.90;;;;;;5031855;28;20185;-78
2022/04/01 05:30:20;;;;;;;9.13;5.77;;;0.20;99.90;;;;;;5022172;28;20197;-78
2022/04/01 05:33:06;;;;;;;8.43;4.73;;;0.20;99.90;;;;;;5023879;28;20554;-80
2022/04/01 05:35:37;;;;;;;7.73;5.07;;;0.20;99.90;;;;;;5016496;28;20614;-77
2022/04/01 05:38:05;;;;;;;9.47;5.57;;;0.20;99.90;;;;;;5013049;28;20206;-78
2022/04/01 05:40:31;;;;;;;25.60;14.27;;;0.20;99.90;;;;;;5023974;28;20188;-77
2022/04/01 05:42:59;;;;;;;60.47;22.97;;;1.50;99.90;;;;;;5006553;28;20212;-76
2022/04/01 05:45:30;;;;;;;42.60;18.90;;;0.30;99.90;;;;;;5026281;28;20201;-76
2022/04/01 05:47:57;;;;;;;52.87;19.67;;;0.20;99.90;;;;;;5025428;28;20197;-77
2022/04/01 05:50:25;;;;;;;29.03;15.73;;;0.30;99.90;;;;;;5021432;28;20203;-78
2022/04/01 05:52:53;;;;;;;35.77;18.53;;;0.30;99.90;;;;;;5000699;28;20191;-77
2022/04/01 05:55:25;;;;;;;16.27;10.80;;;0.40;99.90;;;;;;5019858;28;20180;-77
2022/04/01 05:57:53;;;;;;;12.77;7.00;;;0.30;99.90;;;;;;4998234;28;20325;-77
2022/04/01 06:00:18;;;;;;;9.33;6.33;;;0.20;99.90;;;;;;5019739;28;20253;-79
2022/04/01 06:03:28;;;;;;;9.67;6.27;;;0.20;99.90;;;;;;5000583;28;20285;-78
2022/04/01 06:06:01;;;;;;;17.43;10.50;;;0.30;99.90;;;;;;5030347;28;21370;-81
2022/04/01 06:08:30;;;;;;;11.53;6.77;;;0.30;99.90;;;;;;5027631;28;20858;-77
2022/04/01 06:11:05;;;;;;;6.07;5.10;;;1.70;99.90;;;;;;5031229;28;20181;-77
2022/04/01 06:13:31;;;;;;;9.53;6.37;;;;;;;;;;5022719;28;20180;-79
2022/04/01 06:15:57;;;;;;;7.00;4.90;;;;;;;;;;5031931;28;20675;-78
2022/04/01 06:18:30;;;;;;;8.17;5.30;;;0.40;99.90;;;;;;5031915;28;20208;-77
2022/04/01 06:21:04;;;;;;;7.50;4.60;;;0.60;99.90;;;;;;5027755;28;20188;-78
2022/04/01 06:23:54;;;;;;;10.90;6.50;;;0.40;99.90;;;;;;5031515;28;20234;-83
2022/04/01 06:26:20;;;;;;;9.73;5.93;;;0.40;99.90;;;;;;5023802;28;20172;-79
2022/04/01 06:29:00;;;;;;;9.17;5.50;;;0.40;99.90;;;;;;5030959;28;20521;-78
2022/04/01 06:31:29;;;;;;;13.90;6.83;;;1.30;99.90;;;;;;5032033;28;20170;-77
2022/04/01 06:34:21;;;;;;;8.33;5.20;;;0.40;99.90;;;;;;5014711;28;20204;-78
2022/04/01 06:37:02;;;;;;;13.77;6.50;;;0.40;99.90;;;;;;5033015;28;20277;-80
2022/04/01 06:39:46;;;;;;;9.53;5.40;;;1.10;99.90;;;;;;5033549;28;20668;-78
2022/04/01 06:42:22;;;;;;;13.13;7.57;;;0.50;99.90;;;;;;5031775;28;20174;-77
2022/04/01 06:44:48;;;;;;;9.80;5.90;;;0.60;99.90;;;;;;5030571;28;20630;-77
2022/04/01 06:47:14;;;;;;;15.07;7.30;;;1.20;99.90;;;;;;5011561;28;20207;-77
2022/04/01 06:49:40;;;;;;;13.10;7.00;;;1.70;99.90;;;;;;5009213;28;20189;-78
2022/04/01 06:52:07;;;;;;;9.07;6.37;;;0.60;99.90;;;;;;5033768;28;20184;-77
2022/04/01 06:54:33;;;;;;;9.00;5.30;;;1.70;99.90;;;;;;5030510;28;20229;-81
2022/04/01 06:56:58;;;;;;;12.20;5.57;;;0.70;99.90;;;;;;5013147;28;20529;-78
2022/04/01 06:59:24;;;;;;;14.33;6.77;;;1.00;99.90;;;;;;5025255;28;20227;-83
2022/04/01 07:01:50;;;;;;;11.63;6.87;;;0.70;99.90;;;;;;5007044;28;20543;-78
2022/04/01 07:04:16;;;;;;;13.70;7.23;;;0.80;99.90;;;;;;5017725;28;20613;-78
2022/04/01 07:06:41;;;;;;;7.63;5.40;;;0.80;99.90;;;;;;5021750;28;20204;-77
2022/04/01 07:09:07;;;;;;;16.13;8.43;;;0.80;99.90;;;;;;5026190;28;20233;-80
2022/04/01 07:11:34;;;;;;;13.47;6.90;;;0.90;99.90;;;;;;4997546;28;20188;-83
2022/04/01 07:14:00;;;;;;;8.80;6.37;;;1.90;99.90;;;;;;5019400;28;20185;-79
2022/04/01 07:16:25;;;;;;;17.97;9.73;;;0.90;99.90;;;;;;4996635;28;20184;-78
2022/04/01 07:18:51;;;;;;;18.23;10.07;;;1.50;99.90;;;;;;5006232;28;20212;-78
2022/04/01 07:21:17;;;;;;;25.07;12.10;;;0.90;99.90;;;;;;5013873;28;20637;-79
2022/04/01 07:23:43;;;;;;;71.87;31.13;;;0.90;99.90;;;;;;5031242;28;20272;-79
2022/04/01 07:26:09;;;;;;;27.20;13.93;;;2.30;99.90;;;;;;5030874;28;20246;-78
2022/04/01 07:28:36;;;;;;;9.80;6.00;;;;;;;;;;5036314;28;20181;-78
2022/04/01 07:32:29;;;;;;;13.90;8.20;;;0.80;99.90;;;;;;5016098;28;20272;-78
2022/04/01 07:33:48;;;;;;;9.40;6.53;;;;;;;;;;5020399;28;20230;-77
2022/04/01 07:36:13;;;;;;;10.80;6.97;;;0.70;99.90;;;;;;5038669;28;20211;-78
2022/04/01 07:38:39;;;;;;;11.73;6.23;;;0.70;99.90;;;;;;5040148;28;20669;-80
2022/04/01 07:41:05;;;;;;;8.63;4.87;;;0.60;99.90;;;;;;5026787;28;20186;-77
2022/04/01 07:43:33;;;;;;;5.17;3.83;;;0.60;99.90;;;;;;5022976;28;20239;-78
2022/04/01 07:45:58;;;;;;;8.60;4.73;;;0.60;99.90;;;;;;5038183;28;20185;-77
2022/04/01 07:48:24;;;;;;;10.13;5.87;;;0.60;99.90;;;;;;5009409;28;20229;-81
2022/04/01 07:50:50;;;;;;;9.77;4.60;;;0.80;99.90;;;;;;5037199;28;20713;-84
2022/04/01 07:53:17;;;;;;;6.70;4.27;;;;;;;;;;5005288;28;20192;-82
2022/04/01 07:55:48;;;;;;;8.70;4.70;;;0.50;99.90;;;;;;5000869;28;20192;-78
2022/04/01 07:58:18;;;;;;;13.03;5.67;;;1.40;99.90;;;;;;5021218;28;20232;-78
2022/04/01 08:00:44;;;;;;;8.80;4.90;;;0.60;99.90;;;;;;5023445;28;20188;-79
2022/04/01 08:03:10;;;;;;;12.10;6.50;;;0.70;99.90;;;;;;5001815;28;20200;-79
2022/04/01 08:05:36;;;;;;;13.80;6.53;;;0.70;99.90;;;;;;5009848;28;20271;-80
2022/04/01 08:08:01;;;;;;;10.47;5.57;;;1.80;99.90;;;;;;5018776;28;20285;-78
2022/04/01 08:10:27;;;;;;;9.17;5.60;;;1.10;99.90;;;;;;5005140;28;20239;-83
2022/04/01 08:12:53;;;;;;;14.00;6.60;;;0.90;99.90;;;;;;4991688;28;20226;-81
2022/04/01 08:15:19;;;;;;;9.50;4.73;;;1.90;99.90;;;;;;5003775;28;20196;-80
2022/04/01 08:17:45;;;;;;;6.63;4.70;;;;;;;;;;5010787;28;20222;-80
2022/04/01 08:20:12;;;;;;;8.70;4.53;;;0.80;99.90;;;;;;5013692;28;20219;-79
2022/04/01 08:22:38;;;;;;;12.60;5.67;;;0.80;99.90;;;;;;5036082;28;20185;-81
2022/04/01 08:25:05;;;;;;;14.30;6.30;;;1.80;99.90;;;;;;5038145;28;20188;-80
2022/04/01 08:27:31;;;;;;;13.07;6.23;;;0.90;99.90;;;;;;5014661;28;20219;-79
2022/04/01 08:29:59;;;;;;;9.93;4.93;;;1.00;99.90;;;;;;4979698;28;20637;-80
2022/04/01 08:32:26;;;;;;;12.20;6.00;;;2.60;99.90;;;;;;5025022;28;20728;-80
2022/04/01 08:34:52;;;;;;;16.97;6.97;;;;;;;;;;5032994;28;20195;-79
2022/04/01 08:37:19;;;;;;;10.50;5.73;;;;;;;;;;5020373;28;20199;-80
2022/04/01 08:39:45;;;;;;;9.93;5.13;;;1.00;99.90;;;;;;5028388;28;20218;-78
2022/04/01 08:42:11;;;;;;;12.33;6.43;;;1.40;99.90;;;;;;5017142;28;20206;-79
2022/04/01 08:44:41;;;;;;;16.93;6.77;;;1.10;99.90;;;;;;5017304;28;20668;-80
2022/04/01 08:47:08;;;;;;;13.23;6.50;;;2.10;99.90;;;;;;5033199;28;20183;-80
2022/04/01 08:49:34;;;;;;;8.43;5.47;;;1.30;99.90;;;;;;5033963;28;20192;-78
2022/04/01 08:52:00;;;;;;;7.43;4.70;;;1.00;99.90;;;;;;4998419;28;20236;-79
2022/04/01 08:54:26;;;;;;;6.80;4.20;;;1.10;99.90;;;;;;5033963;28;20184;-79
2022/04/01 08:56:52;;;;;;;8.33;5.23;;;1.10;99.90;;;;;;4998781;28;20191;-81
2022/04/01 08:59:17;;;;;;;9.90;5.37;;;1.10;99.90;;;;;;5032832;28;20207;-79
2022/04/01 09:01:44;;;;;;;9.73;5.03;;;1.60;99.90;;;;;;5015494;28;20278;-82
2022/04/01 09:04:23;;;;;;;9.43;4.47;;;1.80;99.90;;;;;;5033882;28;20263;-79
2022/04/01 09:06:50;;;;;;;9.17;5.37;;;1.20;99.90;;;;;;5033476;28;20173;-78
2022/04/01 09:09:27;;;;;;;11.07;5.90;;;1.10;99.90;;;;;;4998179;28;20267;-79
2022/04/01 09:12:15;;;;;;;7.07;4.20;;;1.20;99.90;;;;;;5032226;28;20219;-79
2022/04/01 09:14:52;;;;;;;6.30;4.70;;;1.10;99.90;;;;;;5031947;28;20174;-80
2022/04/01 09:17:18;;;;;;;8.20;4.97;;;1.20;99.90;;;;;;5032057;28;20321;-80
2022/04/01 09:19:44;;;;;;;8.17;5.03;;;1.20;99.90;;;;;;5032810;28;20177;-79
2022/04/01 09:22:25;;;;;;;10.87;5.33;;;2.90;99.90;;;;;;5032729;28;20550;-78
2022/04/01 09:24:55;;;;;;;5.60;4.40;;;1.10;99.90;;;;;;5032309;28;20222;-78
2022/04/01 09:27:39;;;;;;;7.00;4.50;;;1.20;99.90;;;;;;5032739;28;20183;-77
2022/04/01 09:30:07;;;;;;;9.17;4.87;;;1.10;99.90;;;;;;5014742;28;20270;-78
2022/04/01 09:32:45;;;;;;;10.97;6.80;;;1.10;99.90;;;;;;5014583;28;20234;-78
2022/04/01 09:35:12;;;;;;;11.10;7.53;;;2.60;99.90;;;;;;5028276;28;20701;-78
2022/04/01 09:37:40;;;;;;;11.10;6.57;;;1.10;99.90;;;;;;5013860;28;20295;-80
2022/04/01 09:40:06;;;;;;;9.53;4.97;;;1.10;99.90;;;;;;5016969;28;20191;-77
2022/04/01 09:42:33;;;;;;;11.73;6.00;;;1.10;99.90;;;;;;5031613;28;20184;-78
2022/04/01 09:44:59;;;;;;;9.10;5.60;;;1.10;99.90;;;;;;5031678;28;20672;-78
2022/04/01 09:47:25;;;;;;;14.40;6.27;;;;;;;;;;5014271;28;20181;-79
2022/04/01 09:49:55;;;;;;;8.83;5.90;;;1.20;99.90;;;;;;5014524;28;20185;-83
2022/04/01 09:52:22;;;;;;;7.97;4.30;;;1.20;99.90;;;;;;5030906;28;20187;-79
2022/04/01 09:54:53;;;;;;;8.33;4.73;;;1.20;99.90;;;;;;5030581;28;20646;-79
2022/04/01 09:57:21;;;;;;;8.43;5.20;;;1.20;99.90;;;;;;5012268;28;20535;-79
2022/04/01 09:59:49;;;;;;;9.87;5.33;;;1.30;99.90;;;;;;5012655;28;20593;-78
2022/04/01 10:02:15;;;;;;;7.50;4.53;;;1.20;99.90;;;;;;5011988;28;20186;-79
2022/04/01 10:04:41;;;;;;;7.63;4.37;;;1.20;99.90;;;;;;5010080;28;20180;-79
2022/04/01 10:07:07;;;;;;;13.13;6.43;;;1.10;99.90;;;;;;5029378;28;20234;-79
2022/04/01 10:09:34;;;;;;;11.23;5.87;;;1.20;99.90;;;;;;5007306;28;20243;-79
2022/04/01 10:12:03;;;;;;;9.63;5.47;;;1.20;99.90;;;;;;5025340;28;20239;-78
2022/04/01 10:14:31;;;;;;;11.13;6.00;;;1.20;99.90;;;;;;5022501;28;20268;-79
2022/04/01 10:17:00;;;;;;;8.03;5.10;;;1.30;99.90;;;;;;5002440;28;20188;-78
2022/04/01 10:19:29;;;;;;;7.33;4.83;;;1.20;99.90;;;;;;5027479;28;20557;-78
2022/04/01 10:21:55;;;;;;;81.63;25.63;;;2.10;99.90;;;;;;5030488;28;20251;-78
2022/04/01 10:24:40;;;;;;;50.53;22.60;;;2.00;99.90;;;;;;5012842;28;20621;-81
2022/04/01 10:27:37;;;;;;;71.50;34.03;;;1.30;99.90;;;;;;5029029;28;20200;-77
2022/04/01 10:30:05;;;;;;;47.63;22.83;;;1.30;99.90;;;;;;5030390;28;20179;-78
2022/04/01 10:32:36;;;;;;;28.93;14.57;;;1.30;99.90;;;;;;4998115;28;20188;-80
2022/04/01 10:35:04;;;;;;;31.77;16.53;;;1.30;99.90;;;;;;5030985;28;20195;-81
2022/04/01 10:37:32;;;;;;;23.33;12.67;;;1.30;99.90;;;;;;4994938;28;20192;-80
2022/04/01 10:40:15;;;;;;;13.63;8.73;;;1.30;99.90;;;;;;5018216;28;20181;-79
2022/04/01 10:42:43;;;;;;;16.73;9.93;;;1.40;99.90;;;;;;5000591;28;20185;-77
2022/04/01 10:45:17;;;;;;;25.87;13.43;;;1.40;99.90;;;;;;5017285;28;20313;-83
2022/04/01 10:53:37;;;;;;;9.03;5.37;;;1.40;99.90;;;;;;5020655;28;20244;-78
2022/04/01 10:56:23;;;;;;;11.37;7.77;;;1.50;99.90;;;;;;5019629;28;20220;-80
2022/04/01 10:59:15;;;;;;;9.00;5.90;;;1.50;99.90;;;;;;5013443;28;20235;-79
2022/04/01 11:01:53;;;;;;;8.87;5.63;;;1.50;99.90;;;;;;5022629;28;20172;-78
2022/04/01 11:04:18;;;;;;;9.63;6.30;;;1.50;99.90;;;;;;5016565;28;20450;-82
2022/04/01 11:06:51;;;;;;;7.23;4.97;;;1.40;99.90;;;;;;4998555;28;20814;-85
2022/04/01 11:09:33;;;;;;;11.97;7.00;;;1.40;99.90;;;;;;5015939;28;20278;-79
2022/04/01 11:12:30;;;;;;;7.20;5.47;;;1.40;99.90;;;;;;5013933;28;20180;-78
2022/04/01 11:15:11;;;;;;;7.53;5.57;;;1.40;99.90;;;;;;5011559;28;20254;-79
2022/04/01 11:17:37;;;;;;;7.63;5.27;;;1.30;99.90;;;;;;5017155;28;20187;-79
2022/04/01 11:20:03;;;;;;;9.23;6.07;;;2.40;99.90;;;;;;5017030;28;20196;-82
2022/04/01 11:22:42;;;;;;;12.30;7.10;;;1.40;99.90;;;;;;5015771;28;20326;-82
2022/04/01 11:25:12;;;;;;;9.00;5.37;;;1.40;99.90;;;;;;5013650;28;20231;-82
2022/04/01 11:27:48;;;;;;;15.70;8.13;;;1.50;99.90;;;;;;5014136;28;20183;-79
2022/04/01 11:30:15;;;;;;;8.10;5.87;;;2.50;99.90;;;;;;5016672;28;20173;-78
2022/04/01 11:32:48;;;;;;;11.93;5.23;;;1.50;99.90;;;;;;4997521;28;20271;-82
2022/04/01 11:35:15;;;;;;;8.37;5.63;;;1.50;99.90;;;;;;4992180;28;20189;-82
2022/04/01 11:37:43;;;;;;;7.00;4.67;;;2.10;99.90;;;;;;4990986;28;20231;-82
2022/04/01 11:40:15;;;;;;;10.73;5.97;;;1.50;99.90;;;;;;4993210;28;20197;-79
2022/04/01 11:43:02;;;;;;;8.03;5.17;;;1.50;99.90;;;;;;5012609;28;20184;-81
2022/04/01 11:45:33;;;;;;;9.20;5.30;;;1.50;99.90;;;;;;5022334;28;20263;-79
2022/04/01 11:47:59;;;;;;;8.63;6.07;;;;;;;;;;5029795;28;20184;-81
2022/04/01 11:50:25;;;;;;;9.43;5.57;;;1.50;99.90;;;;;;5029745;28;20182;-79
2022/04/01 11:52:54;;;;;;;14.10;6.83;;;1.60;99.90;;;;;;5008330;28;20193;-80
2022/04/01 11:55:23;;;;;;;12.23;7.37;;;1.60;99.90;;;;;;5028495;28;20172;-80
2022/04/01 11:57:52;;;;;;;13.27;6.27;;;3.30;99.90;;;;;;5027054;28;20204;-78
2022/04/01 12:00:23;;;;;;;8.77;5.83;;;0.30;99.90;;;;;;5029455;28;20188;-79
2022/04/01 12:02:53;;;;;;;10.87;6.93;;;1.70;99.90;;;;;;5012413;28;20208;-79
2022/04/01 12:05:20;;;;;;;10.47;6.00;;;1.70;99.90;;;;;;5029479;28;20182;-79
2022/04/01 12:10:41;;;;;;;11.00;6.00;;;1.70;99.90;;;;;;4989630;28;20204;-79
2022/04/01 12:13:10;;;;;;;9.37;5.70;;;1.70;99.90;;;;;;4989182;28;20220;-82
2022/04/01 12:15:37;;;;;;;10.03;5.60;;;1.80;99.90;;;;;;4990131;28;20197;-79
2022/04/01 12:18:05;;;;;;;12.87;6.50;;;1.80;99.90;;;;;;4992655;28;20218;-81
2022/04/01 12:20:37;;;;;;;15.03;6.73;;;1.80;99.90;;;;;;4970255;28;20201;-78
2022/04/01 12:23:03;;;;;;;8.60;5.33;;;1.80;99.90;;;;;;4993976;28;20181;-78
2022/04/01 12:25:31;;;;;;;8.50;6.13;;;1.80;99.90;;;;;;4994413;28;20726;-77
2022/04/01 12:27:59;;;;;;;11.60;6.17;;;2.50;99.90;;;;;;5005072;28;20201;-78
2022/04/01 12:30:29;;;;;;;13.30;7.83;;;1.90;99.90;;;;;;4992257;28;20641;-81
2022/04/01 12:32:55;;;;;;;38.23;15.10;;;2.40;99.90;;;;;;4994473;28;20185;-78
2022/04/01 12:35:22;;;;;;;35.00;15.17;;;2.40;99.90;;;;;;4991293;28;20184;-77
2022/04/01 12:38:04;;;;;;;35.90;17.97;;;1.80;99.90;;;;;;5009469;28;20923;-78
2022/04/01 12:40:45;;;;;;;11.57;6.97;;;1.70;99.90;;;;;;4994096;28;20175;-77
2022/04/01 12:43:36;;;;;;;12.80;7.53;;;1.70;99.90;;;;;;4993363;28;20296;-80
2022/04/01 12:46:08;;;;;;;31.47;13.57;;;1.60;99.90;;;;;;4996357;28;20189;-78
2022/04/01 12:48:41;;;;;;;37.97;15.47;;;1.60;99.90;;;;;;4994875;28;20181;-77
2022/04/01 12:51:07;;;;;;;13.23;8.70;;;3.20;99.90;;;;;;4983185;28;20193;-78
2022/04/01 12:53:35;;;;;;;47.47;17.87;;;1.50;99.90;;;;;;5000546;28;20187;-77
2022/04/01 12:56:18;;;;;;;38.40;16.27;;;1.60;99.90;;;;;;4992021;28;20181;-77
2022/04/01 12:58:55;;;;;;;24.33;11.87;;;1.50;99.90;;;;;;4995208;28;20201;-78
2022/04/01 13:01:26;;;;;;;77.97;29.33;;;1.50;99.90;;;;;;4983232;28;20268;-78
2022/04/01 13:03:54;;;;;;;30.13;15.87;;;1.50;99.90;;;;;;4993544;28;20264;-79
2022/04/01 13:06:23;;;;;;;16.77;9.17;;;1.60;99.90;;;;;;4992618;28;20225;-79
2022/04/01 13:09:07;;;;;;;35.27;17.03;;;1.60;99.90;;;;;;5007234;28;20236;-78
2022/04/01 13:11:56;;;;;;;30.13;13.93;;;1.60;99.90;;;;;;5022255;28;20177;-79
2022/04/01 13:14:23;;;;;;;22.53;12.63;;;1.60;99.90;;;;;;5033404;28;20180;-78
2022/04/01 13:16:51;;;;;;;35.30;16.53;;;1.90;99.90;;;;;;5016429;28;20181;-80
2022/04/01 13:19:32;;;;;;;48.23;21.97;;;1.60;99.90;;;;;;5015348;28;20575;-80
2022/04/01 13:22:00;;;;;;;29.87;15.83;;;1.60;99.90;;;;;;5015461;28;20188;-78
2022/04/01 13:24:33;;;;;;;87.77;38.97;;;1.90;99.90;;;;;;4994558;28;20283;-77